createdAt,value
2023-03-29T00:01:10.032Z,3.96
2023-03-29T00:03:45.279Z,3.91
2023-03-29T00:06:14.726Z,3.98
2023-03-29T00:08:45.373Z,4.03
2023-03-29T00:11:13.860Z,4.08
2023-03-29T00:13:42.149Z,4.07
2023-03-29T00:16:12.498Z,4.01
2023-03-29T00:18:42.349Z,3.90
2023-03-29T00:21:12.536Z,3.88
2023-03-29T00:23:41.609Z,3.88
2023-03-29T00:26:11.246Z,3.85
2023-03-29T00:28:42.223Z,3.81
2023-03-29T00:31:12.319Z,3.77
2023-03-29T00:33:41.863Z,3.79
2023-03-29T00:36:11.988Z,3.91
2023-03-29T00:38:41.101Z,4.05
2023-03-29T00:41:10.306Z,4.12
2023-03-29T00:43:58.904Z,4.24
2023-03-29T00:46:29.450Z,4.27
2023-03-29T00:49:04.047Z,4.23
2023-03-29T00:51:35.010Z,4.03
2023-03-29T00:54:05.859Z,3.87
2023-03-29T00:56:37.115Z,3.83
2023-03-29T00:59:06.742Z,3.79
2023-03-29T01:01:41.539Z,3.66
2023-03-29T01:04:18.196Z,3.54
2023-03-29T01:06:49.499Z,3.52
2023-03-29T01:09:20.582Z,3.47
2023-03-29T01:11:51.679Z,3.40
2023-03-29T01:14:23.384Z,3.33
2023-03-29T01:16:52.896Z,3.27
2023-03-29T01:19:27.834Z,3.25
2023-03-29T01:22:03.319Z,3.37
2023-03-29T01:24:41.471Z,3.48
2023-03-29T01:27:15.176Z,3.48
2023-03-29T01:29:46.930Z,3.40
2023-03-29T01:32:17.272Z,3.30
2023-03-29T01:34:50.349Z,3.32
2023-03-29T01:37:24.134Z,3.28
2023-03-29T01:39:53.464Z,3.28
2023-03-29T01:42:28.695Z,3.39
2023-03-29T01:45:04.206Z,3.66
2023-03-29T01:47:47.813Z,3.77
2023-03-29T01:50:18.812Z,3.91
2023-03-29T01:52:51.553Z,4.09
2023-03-29T01:55:23.036Z,4.18
2023-03-29T01:57:53.901Z,4.15
2023-03-29T02:00:25.328Z,4.09
2023-03-29T02:02:55.531Z,4.06
2023-03-29T02:05:29.259Z,4.13
2023-03-29T02:07:59.841Z,4.32
2023-03-29T02:10:28.757Z,4.51
2023-03-29T02:12:58.109Z,4.62
2023-03-29T02:15:28.156Z,4.71
2023-03-29T02:17:56.861Z,4.79
2023-03-29T02:20:27.942Z,4.85
2023-03-29T02:23:01.849Z,4.65
2023-03-29T02:25:32.043Z,4.27
2023-03-29T02:28:02.084Z,4.03
2023-03-29T02:30:33.501Z,3.82
2023-03-29T02:33:05.210Z,3.72
2023-03-29T02:35:35.874Z,3.60
2023-03-29T02:38:05.941Z,3.53
2023-03-29T02:40:35.819Z,3.41
2023-03-29T02:43:06.520Z,3.37
2023-03-29T02:45:36.712Z,3.33
2023-03-29T02:48:07.988Z,3.37
2023-03-29T02:50:38.446Z,3.39
2023-03-29T02:53:12.715Z,3.42
2023-03-29T02:55:42.299Z,3.45
2023-03-29T02:58:12.946Z,3.41
2023-03-29T03:00:44.875Z,3.28
2023-03-29T03:03:15.034Z,3.12
2023-03-29T03:05:43.892Z,2.98
2023-03-29T03:08:13.547Z,2.87
2023-03-29T03:10:42.598Z,2.74
2023-03-29T03:13:12.515Z,2.61
2023-03-29T03:15:42.461Z,2.49
2023-03-29T03:18:12.728Z,2.35
2023-03-29T03:20:42.070Z,2.28
2023-03-29T03:23:11.590Z,2.27
2023-03-29T03:25:41.445Z,2.26
2023-03-29T03:28:12.135Z,2.27
2023-03-29T03:30:41.445Z,2.31
2023-03-29T03:33:11.201Z,2.34
2023-03-29T03:35:40.529Z,2.38
2023-03-29T03:38:10.453Z,2.42
2023-03-29T03:40:38.973Z,2.44
2023-03-29T03:43:08.585Z,2.45
2023-03-29T03:45:38.017Z,2.51
2023-03-29T03:48:07.254Z,2.58
2023-03-29T03:50:35.718Z,2.64
2023-03-29T03:53:04.875Z,2.65
2023-03-29T03:55:33.980Z,2.62
2023-03-29T03:58:02.706Z,2.63
2023-03-29T04:00:30.973Z,2.63
2023-03-29T04:03:01.970Z,2.55
2023-03-29T04:05:30.879Z,2.47
2023-03-29T04:08:00.280Z,2.41
2023-03-29T04:10:29.158Z,2.36
2023-03-29T04:12:58.654Z,2.38
2023-03-29T04:15:28.387Z,2.57
2023-03-29T04:17:56.916Z,2.56
2023-03-29T04:20:25.868Z,2.51
2023-03-29T04:22:55.397Z,2.49
2023-03-29T04:25:24.732Z,2.49
2023-03-29T04:27:53.075Z,2.48
2023-03-29T04:30:21.543Z,2.41
2023-03-29T04:32:50.161Z,2.32
2023-03-29T04:35:18.565Z,2.22
2023-03-29T04:37:48.247Z,2.19
2023-03-29T04:40:19.257Z,2.28
2023-03-29T04:42:47.699Z,2.39
2023-03-29T04:45:17.402Z,2.40
2023-03-29T04:47:47.741Z,2.40
2023-03-29T04:50:16.436Z,2.39
2023-03-29T04:52:45.322Z,2.37
2023-03-29T04:55:14.320Z,2.39
2023-03-29T04:57:44.102Z,2.42
2023-03-29T05:00:15.004Z,2.47
2023-03-29T05:02:44.231Z,2.49
2023-03-29T05:05:13.989Z,2.45
2023-03-29T05:07:43.786Z,2.36
2023-03-29T05:10:13.508Z,2.29
2023-03-29T05:12:44.088Z,2.25
2023-03-29T05:15:14.360Z,2.27
2023-03-29T05:17:43.365Z,2.34
2023-03-29T05:20:13.093Z,2.36
2023-03-29T05:22:43.757Z,2.41
2023-03-29T05:25:13.057Z,2.46
2023-03-29T05:27:42.793Z,2.47
2023-03-29T05:30:14.742Z,2.42
2023-03-29T05:32:43.229Z,2.44
2023-03-29T05:35:13.834Z,2.42
2023-03-29T05:37:43.314Z,2.43
2023-03-29T05:40:12.967Z,2.41
2023-03-29T05:42:43.958Z,2.46
2023-03-29T05:45:13.150Z,2.53
2023-03-29T05:47:43.658Z,2.66
2023-03-29T05:50:13.330Z,2.74
2023-03-29T05:52:44.180Z,2.84
2023-03-29T05:55:13.315Z,2.97
2023-03-29T05:57:44.103Z,3.07
2023-03-29T06:00:19.433Z,3.15
2023-03-29T06:02:47.965Z,3.31
2023-03-29T06:05:16.763Z,3.37
2023-03-29T06:07:45.271Z,3.36
2023-03-29T06:10:13.739Z,3.41
2023-03-29T06:12:42.989Z,3.49
2023-03-29T06:15:13.598Z,3.53
2023-03-29T06:17:44.396Z,3.53
2023-03-29T06:20:14.342Z,3.54
2023-03-29T06:22:46.182Z,3.53
2023-03-29T06:25:17.050Z,3.65
2023-03-29T06:27:48.109Z,3.74
2023-03-29T06:30:16.974Z,3.74
2023-03-29T06:32:45.671Z,3.64
2023-03-29T06:35:14.592Z,3.59
2023-03-29T06:37:48.969Z,3.63
2023-03-29T06:40:18.626Z,3.83
2023-03-29T06:42:47.423Z,4.06
2023-03-29T06:45:16.456Z,4.21
2023-03-29T06:47:47.052Z,4.35
2023-03-29T06:50:16.909Z,4.42
2023-03-29T06:52:47.352Z,4.48
2023-03-29T06:55:15.971Z,4.67
2023-03-29T06:57:44.265Z,4.90
2023-03-29T07:00:15.962Z,4.85
2023-03-29T07:02:45.235Z,4.67
2023-03-29T07:05:14.411Z,4.76
2023-03-29T07:07:56.046Z,5.00
2023-03-29T07:10:25.924Z,5.24
2023-03-29T07:12:54.807Z,5.41
2023-03-29T07:15:23.362Z,5.37
2023-03-29T07:17:51.849Z,5.39
2023-03-29T07:20:22.425Z,5.40
2023-03-29T07:22:51.572Z,5.36
2023-03-29T07:25:21.761Z,5.38
2023-03-29T07:27:51.556Z,5.40
2023-03-29T07:30:23.171Z,5.23
2023-03-29T07:32:53.040Z,5.12
2023-03-29T07:35:22.700Z,5.11
2023-03-29T07:37:51.203Z,5.20
2023-03-29T07:40:22.860Z,5.33
2023-03-29T07:42:52.597Z,5.54
2023-03-29T07:45:26.625Z,5.76
2023-03-29T07:47:57.764Z,6.00
2023-03-29T07:50:26.917Z,6.09
2023-03-29T07:52:56.321Z,6.13
2023-03-29T07:55:24.684Z,6.05
2023-03-29T07:57:53.136Z,6.06
2023-03-29T08:00:24.336Z,6.24
2023-03-29T08:02:52.932Z,6.08
2023-03-29T08:05:33.838Z,6.00
2023-03-29T08:08:10.178Z,6.11
2023-03-29T08:10:39.551Z,6.30
2023-03-29T08:13:08.738Z,6.40
2023-03-29T08:15:38.668Z,6.50
2023-03-29T08:18:08.064Z,6.65
2023-03-29T08:20:36.605Z,6.89
2023-03-29T08:23:05.095Z,6.93
2023-03-29T08:25:34.639Z,6.96
2023-03-29T08:28:02.956Z,7.04
2023-03-29T08:30:31.178Z,7.21
2023-03-29T08:32:59.392Z,7.54
2023-03-29T08:35:27.647Z,7.72
2023-03-29T08:37:55.988Z,7.88
2023-03-29T08:40:26.731Z,7.98
2023-03-29T08:43:14.793Z,8.11
2023-03-29T08:45:51.012Z,8.20
2023-03-29T08:48:23.146Z,8.18
2023-03-29T08:50:54.325Z,8.21
2023-03-29T08:53:28.119Z,8.31
2023-03-29T08:55:58.096Z,8.44
2023-03-29T08:58:29.446Z,8.50
2023-03-29T09:01:01.730Z,8.50
2023-03-29T09:03:32.318Z,8.56
2023-03-29T09:06:04.095Z,8.50
2023-03-29T09:08:35.284Z,8.51
2023-03-29T09:11:13.546Z,8.40
2023-03-29T09:13:52.677Z,8.24
2023-03-29T09:16:26.908Z,8.07
2023-03-29T09:19:02.755Z,7.74
2023-03-29T09:21:34.199Z,7.03
2023-03-29T09:24:09.733Z,6.58
2023-03-29T09:26:40.248Z,6.24
2023-03-29T09:29:15.386Z,6.02
2023-03-29T09:31:44.548Z,5.87
2023-03-29T09:34:15.924Z,5.91
2023-03-29T09:36:49.892Z,5.91
2023-03-29T09:39:20.282Z,5.91
2023-03-29T09:41:52.058Z,6.01
2023-03-29T09:44:30.918Z,6.32
2023-03-29T09:47:03.424Z,6.65
2023-03-29T09:49:34.586Z,6.89
2023-03-29T09:52:05.638Z,7.18
2023-03-29T09:54:35.140Z,7.42
2023-03-29T09:57:04.054Z,7.65
2023-03-29T09:59:32.884Z,7.80
2023-03-29T10:02:06.851Z,7.81
2023-03-29T10:04:35.337Z,8.01
2023-03-29T10:07:04.227Z,8.27
2023-03-29T10:09:33.714Z,8.48
2023-03-29T10:12:06.166Z,8.57
2023-03-29T10:14:36.472Z,8.61
2023-03-29T10:17:07.237Z,8.65
2023-03-29T10:19:36.134Z,8.60
2023-03-29T10:22:07.020Z,8.27
2023-03-29T10:24:35.761Z,8.24
2023-03-29T10:27:07.282Z,8.28
2023-03-29T10:29:37.407Z,8.33
2023-03-29T10:32:15.690Z,8.35
2023-03-29T10:34:46.492Z,7.90
2023-03-29T10:37:18.537Z,7.67
2023-03-29T10:39:47.984Z,7.63
2023-03-29T10:42:18.329Z,7.57
2023-03-29T10:44:53.813Z,7.46
2023-03-29T10:47:22.745Z,7.23
2023-03-29T10:49:55.148Z,7.17
2023-03-29T10:52:25.581Z,7.22
2023-03-29T10:54:54.974Z,7.17
2023-03-29T10:57:27.254Z,7.30
2023-03-29T10:59:59.912Z,7.42
2023-03-29T11:02:45.484Z,7.58
2023-03-29T11:05:28.803Z,7.75
2023-03-29T11:08:06.423Z,7.46
2023-03-29T11:10:39.574Z,7.13
2023-03-29T11:13:12.677Z,6.98
2023-03-29T11:15:46.429Z,7.07
2023-03-29T11:18:35.024Z,7.37
2023-03-29T11:21:10.718Z,7.69
2023-03-29T11:23:46.588Z,8.00
2023-03-29T11:26:18.169Z,8.26
2023-03-29T11:28:50.243Z,8.23
2023-03-29T11:31:23.481Z,8.23
2023-03-29T11:33:58.108Z,8.39
2023-03-29T11:36:31.735Z,8.46
2023-03-29T11:39:04.524Z,8.58
2023-03-29T11:41:34.911Z,8.81
2023-03-29T11:44:05.820Z,8.94
2023-03-29T11:46:37.448Z,9.03
2023-03-29T11:49:10.068Z,9.13
2023-03-29T11:51:42.037Z,9.31
2023-03-29T11:54:14.486Z,9.31
2023-03-29T11:56:44.950Z,9.18
2023-03-29T11:59:17.461Z,8.87
2023-03-29T12:01:49.080Z,8.49
2023-03-29T12:04:25.053Z,8.46
2023-03-29T12:06:58.503Z,8.60
2023-03-29T12:09:34.256Z,8.59
2023-03-29T12:12:07.137Z,8.65
2023-03-29T12:14:42.731Z,8.83
2023-03-29T12:17:13.658Z,9.00
2023-03-29T12:19:47.185Z,9.18
2023-03-29T12:22:20.225Z,9.30
2023-03-29T12:24:52.296Z,9.42
2023-03-29T12:27:25.581Z,9.53
2023-03-29T12:30:10.610Z,9.66
2023-03-29T12:32:46.371Z,9.68
2023-03-29T12:35:46.477Z,9.26
2023-03-29T12:38:20.799Z,9.38
2023-03-29T12:40:55.573Z,9.69
2023-03-29T12:43:25.895Z,9.87
2023-03-29T12:45:56.101Z,10.01
2023-03-29T12:48:26.907Z,10.09
2023-03-29T12:51:00.496Z,10.07
2023-03-29T12:53:33.350Z,10.00
2023-03-29T12:56:09.567Z,10.09
2023-03-29T12:58:42.391Z,10.20
2023-03-29T13:01:25.941Z,10.40
2023-03-29T13:04:14.055Z,10.76
2023-03-29T13:06:55.758Z,11.05
2023-03-29T13:09:30.015Z,11.10
2023-03-29T13:12:04.319Z,11.12
2023-03-29T13:14:38.127Z,11.16
2023-03-29T13:17:18.272Z,11.11
2023-03-29T13:19:55.381Z,11.06
2023-03-29T13:22:42.092Z,11.08
2023-03-29T13:25:21.403Z,11.12
2023-03-29T13:28:01.035Z,11.35
2023-03-29T13:30:46.735Z,11.75
2023-03-29T13:33:35.212Z,11.46
2023-03-29T13:36:17.054Z,11.14
2023-03-29T13:38:54.845Z,11.20
2023-03-29T13:41:28.859Z,11.34
2023-03-29T13:43:58.183Z,11.33
2023-03-29T13:46:41.139Z,11.29
2023-03-29T13:49:19.110Z,11.18
2023-03-29T13:52:03.274Z,11.46
2023-03-29T13:54:33.838Z,12.13
2023-03-29T13:57:05.075Z,12.85
2023-03-29T13:59:38.911Z,13.68
2023-03-29T14:02:13.874Z,14.28
2023-03-29T14:04:45.604Z,14.39
2023-03-29T14:07:26.960Z,14.40
2023-03-29T14:10:00.969Z,14.38
2023-03-29T14:12:34.132Z,14.25
2023-03-29T14:15:04.446Z,14.45
2023-03-29T14:17:36.111Z,14.94
2023-03-29T14:20:09.308Z,15.04
2023-03-29T14:22:43.556Z,15.59
2023-03-29T14:25:18.344Z,16.08
2023-03-29T14:27:48.637Z,16.56
2023-03-29T14:30:22.378Z,17.12
2023-03-29T14:32:52.087Z,17.61
2023-03-29T14:35:27.452Z,18.05
2023-03-29T14:37:57.498Z,18.83
2023-03-29T14:40:27.145Z,19.54
2023-03-29T14:42:58.220Z,19.96
2023-03-29T14:45:29.410Z,19.73
2023-03-29T14:47:59.063Z,19.65
2023-03-29T14:50:30.838Z,20.09
2023-03-29T14:53:02.276Z,20.56
2023-03-29T14:55:36.137Z,20.75
2023-03-29T14:58:27.049Z,20.10
2023-03-29T15:00:55.547Z,19.56
2023-03-29T15:03:42.477Z,19.89
2023-03-29T15:06:18.556Z,20.57
2023-03-29T15:09:05.978Z,21.08
2023-03-29T15:11:39.278Z,21.21
2023-03-29T15:14:53.065Z,20.40
2023-03-29T15:17:42.650Z,19.70
2023-03-29T15:20:20.936Z,19.96
2023-03-29T15:22:56.575Z,20.44
2023-03-29T15:25:36.448Z,20.95
2023-03-29T15:28:42.184Z,21.20
2023-03-29T15:31:15.077Z,21.45
2023-03-29T15:33:47.266Z,21.58
2023-03-29T15:36:28.125Z,21.72
2023-03-29T15:39:02.911Z,21.75
2023-03-29T15:41:34.717Z,21.76
2023-03-29T15:44:08.672Z,21.64
2023-03-29T15:46:43.253Z,21.58
2023-03-29T15:49:20.211Z,21.45
2023-03-29T15:51:55.127Z,21.33
2023-03-29T15:54:28.511Z,21.19
2023-03-29T15:57:02.026Z,21.07
2023-03-29T15:59:43.071Z,20.92
2023-03-29T16:02:25.820Z,20.76
2023-03-29T16:04:57.949Z,20.48
2023-03-29T16:07:26.453Z,20.17
2023-03-29T16:09:56.673Z,19.93
2023-03-29T16:12:28.252Z,19.63
2023-03-29T16:14:59.152Z,19.31
2023-03-29T16:17:30.531Z,18.95
2023-03-29T16:20:04.475Z,18.42
2023-03-29T16:22:37.766Z,17.65
2023-03-29T16:25:16.533Z,16.99
2023-03-29T16:27:53.692Z,16.33
2023-03-29T16:30:26.657Z,15.82
2023-03-29T16:32:58.498Z,15.27
2023-03-29T16:35:35.957Z,14.77
2023-03-29T16:38:14.021Z,14.37
2023-03-29T16:40:47.813Z,14.00
2023-03-29T16:43:18.744Z,13.56
2023-03-29T16:45:50.736Z,13.17
2023-03-29T16:48:21.828Z,12.92
2023-03-29T16:51:00.062Z,12.72
2023-03-29T16:53:34.004Z,12.53
2023-03-29T16:56:03.089Z,12.41
2023-03-29T16:58:31.687Z,12.21
2023-03-29T17:01:09.180Z,12.04
2023-03-29T17:03:37.815Z,11.85
2023-03-29T17:06:07.395Z,11.71
2023-03-29T17:08:36.023Z,11.59
2023-03-29T17:11:05.796Z,11.47
2023-03-29T17:13:34.542Z,11.34
2023-03-29T17:16:03.622Z,11.19
2023-03-29T17:18:32.746Z,11.07
2023-03-29T17:21:01.114Z,10.94
2023-03-29T17:23:29.727Z,10.80
2023-03-29T17:25:58.266Z,10.67
2023-03-29T17:28:26.678Z,10.60
2023-03-29T17:30:55.397Z,10.52
2023-03-29T17:33:25.667Z,10.41
2023-03-29T17:35:55.618Z,10.26
2023-03-29T17:38:25.093Z,10.12
2023-03-29T17:40:53.611Z,10.03
2023-03-29T17:43:22.346Z,9.96
2023-03-29T17:45:51.653Z,9.85
2023-03-29T17:48:23.023Z,9.79
2023-03-29T17:50:52.439Z,9.72
2023-03-29T17:53:21.087Z,9.70
2023-03-29T17:55:51.943Z,9.65
2023-03-29T17:58:21.582Z,9.58
2023-03-29T18:00:51.423Z,9.46
2023-03-29T18:03:20.688Z,9.38
2023-03-29T18:05:49.959Z,9.32
2023-03-29T18:08:19.137Z,9.26
2023-03-29T18:10:48.918Z,9.23
2023-03-29T18:13:18.380Z,9.17
2023-03-29T18:15:47.240Z,9.10
2023-03-29T18:18:16.240Z,9.05
2023-03-29T18:20:45.595Z,9.01
2023-03-29T18:23:14.424Z,8.86
2023-03-29T18:25:43.054Z,8.71
2023-03-29T18:28:12.077Z,8.68
2023-03-29T18:30:40.509Z,8.63
2023-03-29T18:33:09.486Z,8.61
2023-03-29T18:35:39.734Z,8.59
2023-03-29T18:38:08.310Z,8.58
2023-03-29T18:40:38.602Z,8.55
2023-03-29T18:43:07.915Z,8.52
2023-03-29T18:45:37.039Z,8.50
2023-03-29T18:48:08.934Z,8.47
2023-03-29T18:50:38.305Z,8.47
2023-03-29T18:53:06.953Z,8.46
2023-03-29T18:55:38.105Z,8.44
2023-03-29T18:58:06.649Z,8.41
2023-03-29T19:00:34.984Z,8.39
2023-03-29T19:03:04.173Z,8.31
2023-03-29T19:05:34.725Z,8.26
2023-03-29T19:08:05.411Z,8.20
2023-03-29T19:10:35.881Z,8.17
2023-03-29T19:13:05.706Z,8.14
2023-03-29T19:15:34.096Z,8.10
2023-03-29T19:18:02.985Z,8.01
2023-03-29T19:20:31.648Z,7.89
2023-03-29T19:23:02.303Z,7.79
2023-03-29T19:25:31.757Z,7.78
2023-03-29T19:28:02.883Z,7.77
2023-03-29T19:30:35.989Z,7.78
2023-03-29T19:33:04.524Z,7.82
2023-03-29T19:35:33.172Z,7.86
2023-03-29T19:38:01.773Z,7.91
2023-03-29T19:40:30.440Z,7.94
2023-03-29T19:42:58.784Z,7.96
2023-03-29T19:45:27.468Z,8.00
2023-03-29T19:47:57.518Z,7.99
2023-03-29T19:50:26.212Z,7.99
2023-03-29T19:52:56.696Z,7.94
2023-03-29T19:55:26.309Z,7.85
2023-03-29T19:57:55.018Z,7.81
2023-03-29T20:00:24.753Z,7.80
2023-03-29T20:02:54.969Z,7.80
2023-03-29T20:05:23.960Z,7.78
2023-03-29T20:07:53.821Z,7.75
2023-03-29T20:10:23.428Z,7.64
2023-03-29T20:12:51.862Z,7.42
2023-03-29T20:15:20.535Z,7.16
2023-03-29T20:17:52.424Z,7.01
2023-03-29T20:20:23.604Z,7.08
2023-03-29T20:22:53.527Z,7.19
2023-03-29T20:25:22.025Z,7.30
2023-03-29T20:27:51.080Z,7.35
2023-03-29T20:30:20.442Z,7.39
2023-03-29T20:32:51.793Z,7.32
2023-03-29T20:35:20.810Z,6.95
2023-03-29T20:37:51.669Z,6.63
2023-03-29T20:40:22.401Z,6.27
2023-03-29T20:42:53.538Z,5.95
2023-03-29T20:45:21.868Z,5.92
2023-03-29T20:47:55.637Z,6.05
2023-03-29T20:50:26.111Z,6.22
2023-03-29T20:52:54.837Z,6.37
2023-03-29T20:55:23.933Z,6.49
2023-03-29T20:57:53.929Z,6.56
2023-03-29T21:00:23.257Z,6.51
2023-03-29T21:02:52.303Z,6.45
2023-03-29T21:05:20.956Z,6.51
2023-03-29T21:07:50.532Z,6.55
2023-03-29T21:10:20.195Z,6.51
2023-03-29T21:12:49.912Z,6.31
2023-03-29T21:15:19.214Z,6.11
2023-03-29T21:17:49.002Z,5.98
2023-03-29T21:20:19.141Z,5.90
2023-03-29T21:22:47.340Z,5.91
2023-03-29T21:25:16.614Z,6.02
2023-03-29T21:27:45.101Z,6.13
2023-03-29T21:30:13.817Z,6.19
2023-03-29T21:32:42.325Z,6.24
2023-03-29T21:35:11.214Z,6.29
2023-03-29T21:37:39.467Z,6.34
2023-03-29T21:40:10.107Z,6.38
2023-03-29T21:42:38.541Z,6.28
2023-03-29T21:45:08.410Z,6.15
2023-03-29T21:47:37.111Z,5.91
2023-03-29T21:50:06.573Z,5.64
2023-03-29T21:52:37.296Z,5.41
2023-03-29T21:55:06.099Z,5.19
2023-03-29T21:57:34.658Z,4.95
2023-03-29T22:00:04.621Z,4.77
2023-03-29T22:02:33.260Z,4.63
2023-03-29T22:05:01.940Z,4.46
2023-03-29T22:07:30.264Z,4.28
2023-03-29T22:10:03.661Z,4.16
2023-03-29T22:12:34.072Z,4.09
2023-03-29T22:15:02.480Z,4.01
2023-03-29T22:17:30.787Z,3.95
2023-03-29T22:20:02.155Z,3.87
2023-03-29T22:22:30.502Z,3.79
2023-03-29T22:24:58.937Z,3.76
2023-03-29T22:27:27.714Z,3.72
2023-03-29T22:29:55.916Z,3.70
2023-03-29T22:32:24.170Z,3.73
2023-03-29T22:34:53.081Z,3.92
2023-03-29T22:37:22.057Z,4.13
2023-03-29T22:39:51.260Z,4.33
2023-03-29T22:42:22.398Z,4.52
2023-03-29T22:44:51.482Z,4.70
2023-03-29T22:47:20.899Z,4.77
2023-03-29T22:49:52.747Z,4.74
2023-03-29T22:52:22.367Z,4.79
2023-03-29T22:54:51.340Z,4.89
2023-03-29T22:57:20.508Z,4.96
2023-03-29T22:59:49.849Z,5.05
2023-03-29T23:02:18.320Z,5.12
2023-03-29T23:04:47.578Z,5.17
2023-03-29T23:07:16.828Z,5.10
2023-03-29T23:09:49.423Z,5.01
2023-03-29T23:12:17.774Z,4.95
2023-03-29T23:14:46.990Z,4.95
2023-03-29T23:17:19.560Z,5.02
2023-03-29T23:19:48.146Z,5.07
2023-03-29T23:22:17.349Z,5.13
2023-03-29T23:24:46.755Z,5.15
2023-03-29T23:27:15.476Z,5.04
2023-03-29T23:29:44.817Z,4.89
2023-03-29T23:32:13.542Z,4.75
2023-03-29T23:34:42.053Z,4.60
2023-03-29T23:37:10.325Z,4.44
2023-03-29T23:39:39.077Z,4.29
2023-03-29T23:42:07.694Z,4.18
2023-03-29T23:44:37.155Z,4.16
2023-03-29T23:47:06.534Z,4.10
2023-03-29T23:49:35.740Z,3.98
2023-03-29T23:52:04.323Z,3.87
2023-03-29T23:54:33.052Z,3.78
2023-03-29T23:57:01.372Z,3.73
2023-03-29T23:59:30.608Z,3.65
